createdAt,value
2018-03-28T00:01:30.608Z,7.03
2018-03-28T00:03:58.063Z,6.50
2018-03-28T00:06:25.547Z,6.50
2018-03-28T00:08:53.047Z,6.67
2018-03-28T00:11:20.515Z,7.90
2018-03-28T00:13:48.001Z,6.97
2018-03-28T00:16:15.454Z,7.47
2018-03-28T00:18:42.925Z,7.47
2018-03-28T00:21:10.386Z,7.10
2018-03-28T00:23:39.365Z,6.67
2018-03-28T00:26:06.816Z,7.03
2018-03-28T00:28:34.285Z,7.40
2018-03-28T00:31:01.752Z,7.83
2018-03-28T00:33:29.221Z,7.20
2018-03-28T00:35:56.686Z,7.40
2018-03-28T00:38:24.917Z,9.70
2018-03-28T00:40:52.380Z,8.00
2018-03-28T00:43:19.848Z,7.60
2018-03-28T00:45:47.311Z,9.53
2018-03-28T00:48:14.778Z,7.40
2018-03-28T00:50:42.237Z,13.93
2018-03-28T00:53:09.706Z,11.13
2018-03-28T00:55:37.156Z,9.73
2018-03-28T00:58:04.644Z,9.33
2018-03-28T01:00:32.872Z,10.30
2018-03-28T01:03:00.343Z,11.77
2018-03-28T01:05:27.801Z,11.07
2018-03-28T01:07:55.264Z,10.10
2018-03-28T01:10:22.752Z,9.00
2018-03-28T01:12:50.218Z,7.90
2018-03-28T01:15:17.686Z,8.90
2018-03-28T01:17:45.163Z,7.57
2018-03-28T01:20:12.617Z,9.43
2018-03-28T01:22:40.100Z,7.77
2018-03-28T01:25:07.569Z,9.83
2018-03-28T01:27:35.046Z,10.30
2018-03-28T01:30:03.279Z,9.73
2018-03-28T01:32:30.733Z,10.43
2018-03-28T01:34:58.223Z,10.03
2018-03-28T01:37:25.686Z,9.00
2018-03-28T01:39:53.148Z,7.87
2018-03-28T01:42:21.371Z,7.43
2018-03-28T01:44:48.837Z,10.50
2018-03-28T01:47:16.297Z,8.73
2018-03-28T01:49:43.783Z,8.27
2018-03-28T01:52:11.248Z,9.47
2018-03-28T01:54:39.481Z,14.13
2018-03-28T01:57:06.941Z,9.33
2018-03-28T01:59:34.412Z,8.30
2018-03-28T02:02:01.879Z,7.10
2018-03-28T02:04:29.344Z,8.00
2018-03-28T02:06:56.844Z,7.33
2018-03-28T02:09:25.054Z,8.60
2018-03-28T02:11:52.505Z,6.90
2018-03-28T02:14:19.974Z,11.60
2018-03-28T02:16:47.436Z,7.07
2018-03-28T02:19:14.939Z,8.43
2018-03-28T02:21:42.389Z,6.10
2018-03-28T02:24:10.617Z,7.80
2018-03-28T02:26:38.078Z,8.80
2018-03-28T02:29:05.539Z,10.63
2018-03-28T02:31:33.006Z,9.73
2018-03-28T02:34:00.471Z,7.10
2018-03-28T02:36:27.934Z,10.57
2018-03-28T02:38:55.390Z,7.50
2018-03-28T02:41:23.674Z,10.93
2018-03-28T02:43:51.100Z,9.30
2018-03-28T02:46:18.610Z,9.47
2018-03-28T02:48:46.093Z,7.47
2018-03-28T02:51:13.572Z,7.10
2018-03-28T02:53:41.025Z,7.13
2018-03-28T02:56:08.513Z,11.93
2018-03-28T02:58:35.981Z,9.70
2018-03-28T03:01:04.222Z,11.17
2018-03-28T03:03:31.693Z,7.30
2018-03-28T03:05:59.166Z,10.10
2018-03-28T03:08:27.389Z,7.60
2018-03-28T03:10:54.870Z,8.53
2018-03-28T03:13:22.325Z,8.97
2018-03-28T03:15:49.791Z,9.40
2018-03-28T03:18:17.253Z,7.23
2018-03-28T03:20:44.728Z,7.43
2018-03-28T03:23:13.600Z,8.40
2018-03-28T03:25:41.083Z,7.63
2018-03-28T03:28:09.305Z,10.30
2018-03-28T03:30:36.781Z,9.90
2018-03-28T03:33:04.240Z,8.03
2018-03-28T03:35:31.728Z,7.67
2018-03-28T03:37:59.949Z,9.73
2018-03-28T03:40:27.412Z,6.37
2018-03-28T03:42:54.879Z,8.57
2018-03-28T03:45:22.346Z,7.20
2018-03-28T03:47:49.817Z,7.57
2018-03-28T03:50:17.262Z,7.83
2018-03-28T03:52:44.726Z,7.23
2018-03-28T03:55:12.175Z,8.17
2018-03-28T03:57:39.641Z,6.80
2018-03-28T04:00:07.104Z,5.77
2018-03-28T04:02:34.575Z,7.80
2018-03-28T04:05:02.056Z,6.83
2018-03-28T04:07:29.515Z,4.37
2018-03-28T04:09:56.977Z,4.47
2018-03-28T04:12:24.442Z,8.13
2018-03-28T04:14:51.927Z,6.17
2018-03-28T04:17:19.389Z,7.20
2018-03-28T04:19:46.851Z,6.83
2018-03-28T04:22:14.312Z,7.73
2018-03-28T04:24:41.764Z,9.63
2018-03-28T04:27:09.226Z,6.03
2018-03-28T04:29:36.692Z,8.07
2018-03-28T04:32:04.160Z,5.10
2018-03-28T04:34:31.875Z,8.80
2018-03-28T04:36:59.367Z,5.37
2018-03-28T04:39:26.826Z,5.27
2018-03-28T04:41:54.270Z,3.87
2018-03-28T04:44:21.752Z,7.70
2018-03-28T04:46:49.207Z,4.20
2018-03-28T04:49:16.687Z,5.90
2018-03-28T04:51:44.899Z,5.40
2018-03-28T04:54:12.377Z,6.40
2018-03-28T04:56:39.833Z,5.50
2018-03-28T04:59:07.301Z,4.97
2018-03-28T05:01:34.767Z,4.17
2018-03-28T05:04:02.279Z,8.23
2018-03-28T05:06:30.476Z,6.83
2018-03-28T05:08:57.953Z,4.87
2018-03-28T05:11:25.405Z,7.20
2018-03-28T05:13:53.634Z,6.50
2018-03-28T05:16:21.096Z,6.03
2018-03-28T05:18:48.589Z,5.80
2018-03-28T05:21:16.044Z,4.60
2018-03-28T05:23:43.515Z,5.13
2018-03-28T05:26:10.984Z,6.53
2018-03-28T05:28:38.448Z,4.77
2018-03-28T05:31:06.688Z,9.20
2018-03-28T05:33:34.156Z,11.57
2018-03-28T05:36:01.600Z,6.67
2018-03-28T05:38:29.097Z,6.13
2018-03-28T05:40:57.371Z,5.40
2018-03-28T05:43:24.790Z,6.37
2018-03-28T05:45:52.258Z,6.63
2018-03-28T05:48:19.710Z,3.70
2018-03-28T05:50:47.190Z,3.50
2018-03-28T05:53:14.705Z,5.90
2018-03-28T05:55:42.172Z,7.13
2018-03-28T05:58:09.657Z,5.87
2018-03-28T06:00:37.123Z,2.57
2018-03-28T06:03:04.657Z,3.90
2018-03-28T06:05:32.304Z,6.57
2018-03-28T06:07:59.787Z,4.03
2018-03-28T06:10:27.263Z,4.43
2018-03-28T06:12:54.746Z,4.07
2018-03-28T06:15:22.964Z,5.33
2018-03-28T06:17:50.420Z,8.27
2018-03-28T06:20:17.907Z,4.83
2018-03-28T06:22:45.357Z,8.90
2018-03-28T06:25:12.819Z,6.87
2018-03-28T06:27:40.270Z,5.90
2018-03-28T06:30:07.747Z,4.67
2018-03-28T06:32:35.191Z,6.13
2018-03-28T06:35:02.663Z,6.87
2018-03-28T06:37:30.885Z,7.13
2018-03-28T06:39:58.352Z,9.60
2018-03-28T06:42:25.806Z,5.23
2018-03-28T06:44:53.272Z,8.20
2018-03-28T06:47:20.764Z,10.97
2018-03-28T06:49:48.222Z,7.47
2018-03-28T06:52:15.685Z,5.33
2018-03-28T06:54:43.940Z,5.30
2018-03-28T06:57:11.405Z,3.70
2018-03-28T06:59:38.971Z,5.90
2018-03-28T07:02:07.185Z,6.90
2018-03-28T07:04:34.660Z,4.67
2018-03-28T07:07:02.188Z,8.00
2018-03-28T07:09:29.655Z,6.00
2018-03-28T07:11:57.120Z,5.63
2018-03-28T07:14:24.586Z,4.70
2018-03-28T07:16:52.061Z,5.97
2018-03-28T07:19:19.521Z,9.33
2018-03-28T07:21:46.996Z,6.97
2018-03-28T07:24:14.477Z,6.77
2018-03-28T07:26:42.731Z,8.27
2018-03-28T07:29:10.228Z,8.77
2018-03-28T07:31:37.705Z,7.17
2018-03-28T07:34:05.163Z,6.20
2018-03-28T07:36:32.641Z,3.73
2018-03-28T07:39:00.101Z,7.60
2018-03-28T07:41:27.585Z,6.77
2018-03-28T07:43:55.041Z,8.10
2018-03-28T07:46:22.509Z,5.83
2018-03-28T07:48:49.971Z,13.97
2018-03-28T07:51:18.215Z,18.70
2018-03-28T07:53:45.695Z,52.37
2018-03-28T07:56:13.173Z,15.97
2018-03-28T07:58:40.650Z,8.27
2018-03-28T08:01:08.132Z,6.07
2018-03-28T08:03:35.604Z,11.90
2018-03-28T08:06:03.091Z,8.43
2018-03-28T08:08:30.565Z,10.57
2018-03-28T08:10:58.034Z,6.30
2018-03-28T08:13:25.512Z,4.30
2018-03-28T08:15:52.970Z,11.13
2018-03-28T08:18:20.444Z,8.07
2018-03-28T08:20:47.905Z,8.20
2018-03-28T08:23:15.381Z,8.03
2018-03-28T08:25:42.864Z,5.20
2018-03-28T08:28:10.338Z,6.93
2018-03-28T08:30:37.812Z,10.57
2018-03-28T08:33:05.309Z,13.93
2018-03-28T08:35:32.765Z,7.67
2018-03-28T08:38:00.238Z,14.57
2018-03-28T08:40:28.474Z,6.40
2018-03-28T08:42:55.955Z,11.63
2018-03-28T08:45:23.408Z,6.50
2018-03-28T08:47:50.881Z,6.80
2018-03-28T08:50:18.351Z,6.63
2018-03-28T08:52:46.583Z,6.53
2018-03-28T08:55:14.045Z,6.20
2018-03-28T08:57:41.596Z,11.87
2018-03-28T09:00:09.056Z,7.07
2018-03-28T09:02:36.548Z,5.93
2018-03-28T09:05:04.778Z,7.40
2018-03-28T09:07:32.249Z,4.30
2018-03-28T09:09:59.723Z,6.40
2018-03-28T09:12:27.182Z,4.80
2018-03-28T09:14:54.645Z,6.07
2018-03-28T09:17:22.104Z,9.50
2018-03-28T09:19:49.570Z,6.67
2018-03-28T09:22:17.808Z,6.67
2018-03-28T09:24:45.310Z,9.70
2018-03-28T09:27:13.541Z,5.90
2018-03-28T09:29:41.041Z,5.83
2018-03-28T09:32:09.260Z,5.30
2018-03-28T09:34:36.733Z,5.53
2018-03-28T09:37:04.203Z,4.90
2018-03-28T09:39:31.676Z,4.47
2018-03-28T09:41:59.171Z,8.67
2018-03-28T09:44:26.633Z,7.93
2018-03-28T09:46:54.102Z,7.00
2018-03-28T09:49:21.581Z,3.87
2018-03-28T09:51:49.041Z,6.13
2018-03-28T09:54:16.512Z,5.60
2018-03-28T09:56:43.971Z,5.30
2018-03-28T09:59:11.452Z,3.97
2018-03-28T10:04:43.216Z,6.20
2018-03-28T10:07:10.758Z,4.77
2018-03-28T10:09:38.237Z,3.27
2018-03-28T10:12:05.701Z,7.70
2018-03-28T10:14:33.948Z,4.50
2018-03-28T10:17:01.420Z,3.87
2018-03-28T10:19:28.896Z,4.67
2018-03-28T10:21:57.127Z,5.73
2018-03-28T10:24:24.604Z,7.90
2018-03-28T10:26:52.084Z,5.50
2018-03-28T10:29:20.312Z,5.30
2018-03-28T10:31:47.773Z,3.80
2018-03-28T10:34:15.241Z,4.50
2018-03-28T10:36:42.751Z,4.73
2018-03-28T10:39:10.220Z,4.67
2018-03-28T10:41:37.693Z,3.57
2018-03-28T10:44:05.169Z,3.77
2018-03-28T10:46:32.646Z,4.20
2018-03-28T10:49:00.104Z,4.63
2018-03-28T10:51:27.581Z,5.03
2018-03-28T10:53:55.801Z,5.17
2018-03-28T10:56:23.284Z,4.07
2018-03-28T10:58:50.743Z,6.47
2018-03-28T11:01:19.719Z,4.30
2018-03-28T11:03:47.177Z,6.77
2018-03-28T11:06:14.654Z,4.07
2018-03-28T11:08:42.132Z,5.20
2018-03-28T11:11:09.620Z,3.50
2018-03-28T11:13:37.082Z,4.40
2018-03-28T11:16:04.554Z,4.33
2018-03-28T11:18:32.018Z,5.83
2018-03-28T11:20:59.498Z,8.40
2018-03-28T11:23:26.960Z,5.13
2018-03-28T11:25:54.473Z,4.40
2018-03-28T11:28:22.668Z,3.90
2018-03-28T11:30:50.154Z,4.50
2018-03-28T11:33:17.615Z,5.27
2018-03-28T11:35:45.144Z,5.50
2018-03-28T11:38:12.568Z,4.53
2018-03-28T11:40:40.038Z,4.60
2018-03-28T11:43:07.504Z,3.10
2018-03-28T11:45:34.964Z,4.83
2018-03-28T11:48:02.439Z,3.27
2018-03-28T11:50:29.912Z,3.93
2018-03-28T11:52:57.440Z,3.40
2018-03-28T11:55:25.624Z,3.47
2018-03-28T11:57:53.117Z,3.50
2018-03-28T12:00:22.411Z,4.27
2018-03-28T12:02:49.877Z,4.57
2018-03-28T12:05:17.364Z,4.70
2018-03-28T12:07:44.860Z,4.20
2018-03-28T12:10:12.367Z,3.27
2018-03-28T12:12:40.634Z,2.37
2018-03-28T12:15:08.861Z,4.10
2018-03-28T12:17:36.340Z,2.87
2018-03-28T12:20:03.800Z,2.10
2018-03-28T12:22:31.272Z,3.43
2018-03-28T12:24:59.548Z,2.00
2018-03-28T12:27:27.011Z,2.77
2018-03-28T12:29:55.241Z,2.07
2018-03-28T12:32:22.723Z,3.57
2018-03-28T12:34:50.185Z,2.13
2018-03-28T12:37:17.663Z,2.70
2018-03-28T12:39:45.900Z,3.83
2018-03-28T12:42:13.385Z,3.63
2018-03-28T12:44:40.849Z,2.80
2018-03-28T12:47:08.307Z,3.90
2018-03-28T12:49:35.803Z,2.60
2018-03-28T12:52:03.264Z,4.10
2018-03-28T12:54:30.808Z,1.70
2018-03-28T12:56:58.310Z,1.80
2018-03-28T12:59:25.786Z,2.07
2018-03-28T13:01:53.255Z,1.77
2018-03-28T13:04:20.726Z,1.80
2018-03-28T13:06:48.964Z,2.13
2018-03-28T13:09:16.451Z,3.20
2018-03-28T13:11:43.920Z,3.67
2018-03-28T13:14:12.157Z,1.40
2018-03-28T13:16:39.628Z,1.60
2018-03-28T13:19:07.101Z,2.10
2018-03-28T13:21:34.605Z,1.70
2018-03-28T13:24:02.105Z,2.27
2018-03-28T13:26:29.564Z,3.20
2018-03-28T13:28:57.040Z,2.93
2018-03-28T13:31:25.270Z,1.87
2018-03-28T13:33:52.749Z,3.80
2018-03-28T13:36:20.215Z,1.97
2018-03-28T13:38:47.749Z,1.80
2018-03-28T13:41:15.209Z,1.60
2018-03-28T13:43:42.692Z,1.37
2018-03-28T13:46:10.160Z,1.40
2018-03-28T13:48:38.397Z,1.30
2018-03-28T13:51:05.856Z,1.50
2018-03-28T13:53:33.313Z,1.60
2018-03-28T13:56:00.786Z,2.63
2018-03-28T13:58:28.252Z,1.20
2018-03-28T14:00:55.733Z,1.30
2018-03-28T14:03:23.976Z,1.30
2018-03-28T14:05:51.453Z,2.07
2018-03-28T14:08:19.684Z,1.43
2018-03-28T14:10:47.163Z,2.63
2018-03-28T14:13:14.636Z,1.40
2018-03-28T14:15:42.126Z,1.30
2018-03-28T14:18:09.605Z,2.23
2018-03-28T14:20:37.072Z,1.30
2018-03-28T14:23:04.549Z,1.10
2018-03-28T14:25:32.018Z,1.40
2018-03-28T14:27:59.481Z,1.40
2018-03-28T14:30:26.950Z,1.23
2018-03-28T14:32:55.327Z,2.20
2018-03-28T14:35:23.584Z,1.60
2018-03-28T14:37:51.050Z,1.30
2018-03-28T14:40:18.527Z,2.13
2018-03-28T14:42:54.591Z,1.57
2018-03-28T14:45:14.315Z,1.37
2018-03-28T14:47:41.762Z,1.20
2018-03-28T14:50:09.242Z,2.13
2018-03-28T14:52:36.718Z,1.50
2018-03-28T14:55:04.994Z,1.23
2018-03-28T14:57:32.473Z,2.03
2018-03-28T15:00:00.710Z,1.30
2018-03-28T15:02:29.242Z,1.20
2018-03-28T15:04:56.723Z,1.20
2018-03-28T15:07:24.202Z,1.20
2018-03-28T15:09:51.690Z,1.40
2018-03-28T15:12:19.194Z,1.70
2018-03-28T15:14:46.654Z,6.47
2018-03-28T15:17:14.129Z,1.30
2018-03-28T15:19:41.610Z,1.23
2018-03-28T15:22:09.130Z,1.50
2018-03-28T15:24:36.602Z,2.40
2018-03-28T15:27:04.241Z,1.60
2018-03-28T15:29:31.770Z,1.90
2018-03-28T15:32:00.043Z,1.40
2018-03-28T15:34:28.299Z,1.40
2018-03-28T15:36:55.806Z,1.53
2018-03-28T15:39:23.313Z,1.40
2018-03-28T15:41:50.813Z,1.37
2018-03-28T15:44:18.312Z,1.50
2018-03-28T15:46:45.795Z,1.20
2018-03-28T15:49:13.283Z,2.40
2018-03-28T15:51:40.837Z,2.20
2018-03-28T15:54:09.101Z,1.60
2018-03-28T15:56:37.378Z,1.40
2018-03-28T15:59:05.686Z,2.10
2018-03-28T16:01:33.929Z,1.70
2018-03-28T16:04:01.419Z,1.60
2018-03-28T16:06:28.910Z,1.90
2018-03-28T16:08:56.429Z,1.87
2018-03-28T16:11:23.946Z,1.40
2018-03-28T16:13:51.454Z,1.60
2018-03-28T16:16:18.943Z,2.03
2018-03-28T16:18:46.452Z,1.20
2018-03-28T16:21:13.944Z,1.87
2018-03-28T16:23:41.434Z,1.40
2018-03-28T16:26:08.931Z,1.70
2018-03-28T16:28:36.446Z,1.97
2018-03-28T16:31:03.934Z,1.50
2018-03-28T16:33:32.200Z,1.57
2018-03-28T16:36:00.441Z,4.03
2018-03-28T16:38:27.955Z,1.40
2018-03-28T16:40:56.197Z,2.03
2018-03-28T16:43:23.741Z,2.60
2018-03-28T16:45:51.171Z,2.00
2018-03-28T16:48:18.691Z,1.97
2018-03-28T16:50:46.935Z,1.20
2018-03-28T16:53:14.450Z,1.47
2018-03-28T16:55:41.923Z,1.43
2018-03-28T16:58:09.469Z,2.10
2018-03-28T17:00:36.958Z,2.43
2018-03-28T17:03:04.450Z,1.97
2018-03-28T17:05:31.935Z,1.40
2018-03-28T17:07:59.442Z,1.50
2018-03-28T17:10:26.927Z,2.10
2018-03-28T17:12:55.182Z,1.63
2018-03-28T17:15:22.673Z,1.70
2018-03-28T17:17:50.200Z,1.97
2018-03-28T17:20:17.693Z,1.70
2018-03-28T17:22:45.176Z,1.67
2018-03-28T17:25:12.671Z,1.50
2018-03-28T17:27:40.191Z,1.50
2018-03-28T17:30:07.697Z,2.40
2018-03-28T17:32:35.265Z,1.37
2018-03-28T17:35:02.769Z,2.10
2018-03-28T17:37:30.315Z,2.17
2018-03-28T17:39:57.758Z,2.57
2018-03-28T17:42:26.003Z,2.27
2018-03-28T17:44:53.490Z,1.70
2018-03-28T17:47:21.013Z,1.70
2018-03-28T17:49:48.450Z,2.33
2018-03-28T17:52:15.937Z,2.60
2018-03-28T17:54:43.421Z,2.50
2018-03-28T17:57:11.671Z,2.73
2018-03-28T17:59:39.150Z,4.23
2018-03-28T18:02:07.391Z,1.50
2018-03-28T18:04:34.882Z,1.80
2018-03-28T18:07:03.142Z,2.40
2018-03-28T18:09:30.623Z,3.00
2018-03-28T18:11:58.869Z,1.73
2018-03-28T18:14:26.351Z,1.97
2018-03-28T18:16:54.607Z,1.70
2018-03-28T18:19:22.136Z,3.20
2018-03-28T18:21:49.636Z,2.50
2018-03-28T18:24:17.883Z,2.20
2018-03-28T18:26:45.342Z,2.57
2018-03-28T18:29:12.830Z,3.37
2018-03-28T18:31:40.301Z,1.77
2018-03-28T18:34:08.587Z,1.63
2018-03-28T18:36:36.175Z,2.00
2018-03-28T18:39:03.758Z,2.17
2018-03-28T18:41:31.343Z,3.00
2018-03-28T18:43:59.606Z,1.80
2018-03-28T18:46:27.141Z,1.80
2018-03-28T18:48:54.654Z,1.70
2018-03-28T18:51:22.148Z,1.80
2018-03-28T18:53:49.633Z,2.00
2018-03-28T18:56:17.337Z,2.37
2018-03-28T18:58:44.961Z,2.13
2018-03-28T19:01:12.453Z,1.53
2018-03-28T19:03:40.714Z,1.90
2018-03-28T19:06:08.981Z,1.67
2018-03-28T19:08:36.468Z,2.23
2018-03-28T19:11:04.716Z,1.40
2018-03-28T19:13:32.201Z,1.47
2018-03-28T19:16:00.450Z,1.50
2018-03-28T19:18:27.943Z,3.93
2018-03-28T19:20:55.474Z,2.13
2018-03-28T19:23:23.720Z,1.30
2018-03-28T19:25:51.206Z,1.50
2018-03-28T19:28:19.462Z,5.23
2018-03-28T19:30:46.921Z,1.40
2018-03-28T19:33:14.388Z,2.50
2018-03-28T19:35:41.848Z,1.30
2018-03-28T19:38:09.314Z,1.70
2018-03-28T19:40:36.804Z,1.67
2018-03-28T19:43:04.280Z,1.80
2018-03-28T19:45:31.741Z,2.17
2018-03-28T19:47:59.353Z,1.60
2018-03-28T19:50:27.588Z,1.80
2018-03-28T19:52:55.080Z,1.60
2018-03-28T19:55:22.551Z,2.00
2018-03-28T19:57:50.850Z,3.27
2018-03-28T20:00:18.311Z,1.40
2018-03-28T20:02:46.491Z,1.70
2018-03-28T20:05:13.969Z,1.40
2018-03-28T20:07:41.440Z,2.87
2018-03-28T20:10:08.910Z,1.90
2018-03-28T20:12:36.388Z,1.43
2018-03-28T20:15:03.856Z,1.30
2018-03-28T20:17:32.116Z,1.37
2018-03-28T20:19:59.572Z,1.80
2018-03-28T20:22:27.827Z,2.87
2018-03-28T20:24:55.288Z,2.23
2018-03-28T20:27:22.762Z,1.53
2018-03-28T20:29:50.235Z,2.23
2018-03-28T20:32:18.480Z,1.43
2018-03-28T20:34:45.972Z,1.87
2018-03-28T20:37:14.224Z,1.40
2018-03-28T20:39:41.680Z,1.97
2018-03-28T20:42:09.153Z,2.23
2018-03-28T20:44:37.410Z,1.43
2018-03-28T20:47:04.930Z,1.77
2018-03-28T20:49:32.434Z,2.03
2018-03-28T20:52:00.686Z,1.93
2018-03-28T20:54:28.191Z,2.93
2018-03-28T20:56:56.432Z,2.63
2018-03-28T20:59:23.937Z,1.40
2018-03-28T21:01:51.437Z,2.77
2018-03-28T21:04:18.934Z,1.93
2018-03-28T21:06:47.160Z,1.70
2018-03-28T21:09:14.630Z,1.90
2018-03-28T21:11:42.132Z,2.47
2018-03-28T21:14:10.372Z,1.40
2018-03-28T21:16:37.836Z,2.93
2018-03-28T21:19:05.313Z,2.80
2018-03-28T21:21:33.577Z,1.70
2018-03-28T21:24:01.057Z,1.67
2018-03-28T21:26:29.293Z,2.37
2018-03-28T21:28:56.767Z,1.50
2018-03-28T21:31:24.235Z,1.87
2018-03-28T21:33:52.512Z,1.90
2018-03-28T21:36:20.756Z,1.70
2018-03-28T21:38:48.216Z,1.43
2018-03-28T21:41:15.716Z,2.60
2018-03-28T21:43:43.944Z,2.47
2018-03-28T21:46:11.405Z,4.03
2018-03-28T21:48:38.907Z,2.67
2018-03-28T21:51:07.128Z,2.53
2018-03-28T21:53:34.588Z,2.00
2018-03-28T21:56:02.098Z,2.50
2018-03-28T21:58:30.327Z,1.77
2018-03-28T22:00:57.784Z,2.57
2018-03-28T22:03:25.252Z,2.30
2018-03-28T22:05:52.734Z,2.97
2018-03-28T22:08:20.964Z,2.50
2018-03-28T22:10:48.451Z,2.20
2018-03-28T22:13:15.946Z,3.43
2018-03-28T22:15:43.420Z,3.27
2018-03-28T22:18:10.871Z,5.20
2018-03-28T22:20:38.381Z,2.83
2018-03-28T22:23:05.841Z,2.40
2018-03-28T22:25:33.313Z,2.63
2018-03-28T22:28:00.775Z,2.70
2018-03-28T22:30:29.004Z,1.73
2018-03-28T22:32:56.470Z,1.90
2018-03-28T22:35:23.936Z,1.87
2018-03-28T22:37:51.402Z,1.60
2018-03-28T22:40:18.882Z,1.40
2018-03-28T22:42:47.106Z,2.60
2018-03-28T22:45:14.583Z,1.67
2018-03-28T22:47:42.036Z,2.77
2018-03-28T22:50:09.510Z,2.20
2018-03-28T22:52:36.994Z,2.77
2018-03-28T22:55:05.213Z,2.27
2018-03-28T22:57:32.697Z,1.87
2018-03-28T23:00:00.172Z,1.83
2018-03-28T23:02:28.421Z,3.30
2018-03-28T23:04:56.645Z,2.53
2018-03-28T23:07:24.115Z,3.27
2018-03-28T23:09:51.607Z,1.97
2018-03-28T23:12:19.170Z,2.83
2018-03-28T23:14:46.635Z,1.60
2018-03-28T23:17:14.105Z,2.53
2018-03-28T23:19:41.610Z,3.10
2018-03-28T23:22:09.816Z,1.50
2018-03-28T23:24:37.281Z,2.30
2018-03-28T23:27:04.760Z,1.40
2018-03-28T23:29:32.212Z,1.63
2018-03-28T23:31:59.680Z,2.17
2018-03-28T23:34:27.902Z,1.30
2018-03-28T23:36:55.397Z,1.60
2018-03-28T23:39:22.859Z,1.77
2018-03-28T23:41:50.337Z,2.00
2018-03-28T23:44:18.574Z,1.70
2018-03-28T23:46:46.063Z,1.77
2018-03-28T23:49:14.280Z,4.33
2018-03-28T23:51:41.746Z,2.10
2018-03-28T23:54:09.200Z,3.30
2018-03-28T23:56:36.665Z,3.00
2018-03-28T23:59:04.123Z,2.10
